Larkspur, CO

5:08 PM MST on March 05, 2015 (GMT -0700)
LESchool | Change Station
CLOSE
Current Station
Personal Weather Station
Location: Larkspur, CO
Elevation: 6972 ft
Nearby Weather Stations

Elev 6972 ft 39.23 °N, 104.90 °W | Updated 14 seconds ago

Partly Cloudy
Partly Cloudy
38.5 °F
Feels Like 38 °F
N
1.0
Wind Variable Wind from East
Gusts 2.0 mph

Today
High -- | Low -- °F
--% Chance of Precip.
Yesterday
High -- | Low -- °F
Precip. -- in
6:26 AM 5:56 PM
Full, 100% visible
Pressure 30.20 in
Visibility 10.0 miles
Clouds Clear
Windchill 38 °F
Dew Point 9 °F
Humidity 29%
Rainfall in
Snow Depth Not available.
UV 1 out of 12
Pollen 4.70 out of 12
Air Quality Not available.
Flu Activity Not available.
METAR KMNH 052356Z AUTO 22004KT 10SM CLR 02/M11 A3020 RMK AO2

More Conditions Fewer Conditions

Pressure 30.20 in
Visibility 10.0 miles
Clouds Clear
Windchill 38 °F
Dew Point 9 °F
Humidity 29%
Rainfall in
Snow Depth Not available.
UV 1 out of 12
Pollen 4.70 out of 12
Air Quality Not available.
Flu Activity Not available.
METAR KMNH 052356Z AUTO 22004KT 10SM CLR 02/M11 A3020 RMK AO2

More Conditions Fewer Conditions

10-Day Weather Forecast

Almanac

Astronomy

Mar. 05, 2015 Rise Set
Actual Time
Civil Twilight
Nautical Twilight
Astronomical Twilight
Moon
Length of Visible Light
Length of Day
Tomorrow will be .
, % of the Moon is Illuminated

Today's Extremes

State Highs State Lows

Community

WunderPhotos

Upload Photos

1,803,066 photos uploaded!

WunderBlogs® & News

Nearby

Air Quality

  Air Quality AQ Index Pollutant
Not available.

Snow Depth

Station Depth Elevation

Earthquake Activity

City Distance Mag. Time & Date
Minimum magnitude displayed is 2.5.

Coastal Water Temperatures

Place Temperature

Nearby Weather Stations